createdAt,value
2023-04-15T00:00:55.169Z,25.00
2023-04-15T00:01:55.292Z,25.00
2023-04-15T00:02:55.988Z,25.00
2023-04-15T00:03:55.408Z,19.60
2023-04-15T00:04:55.309Z,20.81
2023-04-15T00:05:55.297Z,22.86
2023-04-15T00:06:55.308Z,24.94
2023-04-15T00:07:55.323Z,25.00
2023-04-15T00:08:55.344Z,23.96
2023-04-15T00:09:55.399Z,25.58
2023-04-15T00:10:55.401Z,24.26
2023-04-15T00:11:55.411Z,25.12
2023-04-15T00:12:55.426Z,25.00
2023-04-15T00:13:55.461Z,24.10
2023-04-15T00:14:55.515Z,25.93
2023-04-15T00:15:55.486Z,25.00
2023-04-15T00:16:55.602Z,25.00
2023-04-15T00:17:55.558Z,25.79
2023-04-15T00:18:55.568Z,25.02
2023-04-15T00:19:55.621Z,25.19
2023-04-15T00:20:55.688Z,27.59
2023-04-15T00:21:55.769Z,26.65
2023-04-15T00:22:55.815Z,25.26
2023-04-15T00:23:55.874Z,24.20
2023-04-15T00:24:55.939Z,26.78
2023-04-15T00:25:56.024Z,25.00
2023-04-15T00:26:56.065Z,25.87
2023-04-15T00:27:56.126Z,24.44
2023-04-15T00:28:56.192Z,26.29
2023-04-15T00:29:56.247Z,27.59
2023-04-15T00:30:56.375Z,25.00
2023-04-15T00:31:56.380Z,27.38
2023-04-15T00:32:56.482Z,27.39
2023-04-15T00:33:56.498Z,26.97
2023-04-15T00:34:56.589Z,28.76
2023-04-15T00:35:56.636Z,26.67
2023-04-15T00:36:56.685Z,27.49
2023-04-15T00:37:56.757Z,27.20
2023-04-15T00:38:56.829Z,28.98
2023-04-15T00:39:56.887Z,26.94
2023-04-15T00:40:56.945Z,25.32
2023-04-15T00:41:57.036Z,29.90
2023-04-15T00:42:57.069Z,27.07
2023-04-15T00:43:57.124Z,25.00
2023-04-15T00:44:57.189Z,25.72
2023-04-15T00:45:57.277Z,25.00
2023-04-15T00:46:57.321Z,28.08
2023-04-15T00:47:57.446Z,27.48
2023-04-15T00:48:57.615Z,28.92
2023-04-15T00:49:57.514Z,27.59
2023-04-15T00:50:57.583Z,26.23
2023-04-15T00:51:57.646Z,27.48
2023-04-15T00:52:57.717Z,27.78
2023-04-15T00:53:57.782Z,28.56
2023-04-15T00:54:57.849Z,26.95
2023-04-15T00:55:57.915Z,26.29
2023-04-15T00:56:57.994Z,27.17
2023-04-15T00:57:58.070Z,25.00
2023-04-15T00:58:58.419Z,30.12
2023-04-15T00:59:58.184Z,29.11
2023-04-15T01:00:58.272Z,26.39
2023-04-15T01:01:58.463Z,27.75
2023-04-15T01:02:58.565Z,27.26
2023-04-15T01:03:58.716Z,27.15
2023-04-15T01:04:58.521Z,30.14
2023-04-15T01:05:58.830Z,25.79
2023-04-15T01:06:58.654Z,28.02
2023-04-15T01:07:58.718Z,27.64
2023-04-15T01:08:59.238Z,25.41
2023-04-15T01:09:58.863Z,27.74
2023-04-15T01:10:58.935Z,26.39
2023-04-15T01:11:58.997Z,25.00
2023-04-15T01:12:59.063Z,26.98
2023-04-15T01:13:59.149Z,25.07
2023-04-15T01:14:59.198Z,27.68
2023-04-15T01:15:59.301Z,27.41
2023-04-15T01:16:59.337Z,29.40
2023-04-15T01:17:59.443Z,29.85
2023-04-15T01:18:59.678Z,26.56
2023-04-15T01:19:59.551Z,30.13
2023-04-15T01:20:59.595Z,27.22
2023-04-15T01:21:59.661Z,28.95
2023-04-15T01:22:59.728Z,28.40
2023-04-15T01:23:59.799Z,27.56
2023-04-15T01:24:59.864Z,27.22
2023-04-15T01:25:59.936Z,29.65
2023-04-15T01:27:00.008Z,28.43
2023-04-15T01:28:00.075Z,26.24
2023-04-15T01:29:00.391Z,28.53
2023-04-15T01:30:00.225Z,28.50
2023-04-15T01:31:00.269Z,26.18
2023-04-15T01:32:00.339Z,30.37
2023-04-15T01:33:00.476Z,26.87
2023-04-15T01:34:00.476Z,26.27
2023-04-15T01:35:00.542Z,25.88
2023-04-15T01:36:00.598Z,26.53
2023-04-15T01:37:00.665Z,27.03
2023-04-15T01:38:00.723Z,27.82
2023-04-15T01:39:00.994Z,27.43
2023-04-15T01:40:00.861Z,25.51
2023-04-15T01:41:00.909Z,30.31
2023-04-15T01:42:00.971Z,25.00
2023-04-15T01:43:01.041Z,30.38
2023-04-15T01:44:01.106Z,29.40
2023-04-15T01:45:01.185Z,30.19
2023-04-15T01:46:01.261Z,29.40
2023-04-15T01:47:01.360Z,26.68
2023-04-15T01:48:01.388Z,26.29
2023-04-15T01:49:02.014Z,29.21
2023-04-15T01:50:01.495Z,26.47
2023-04-15T01:51:01.559Z,26.61
2023-04-15T01:52:01.624Z,25.80
2023-04-15T01:53:01.687Z,27.24
2023-04-15T01:54:01.762Z,26.83
2023-04-15T01:55:01.834Z,27.26
2023-04-15T01:56:01.902Z,28.20
2023-04-15T01:57:01.975Z,29.26
2023-04-15T01:58:02.031Z,26.93
2023-04-15T01:59:02.419Z,26.45
2023-04-15T02:00:02.165Z,28.42
2023-04-15T02:01:02.338Z,29.72
2023-04-15T02:02:02.448Z,28.26
2023-04-15T02:03:02.438Z,31.26
2023-04-15T02:04:02.461Z,26.18
2023-04-15T02:05:02.510Z,29.10
2023-04-15T02:06:02.586Z,27.19
2023-04-15T02:07:02.653Z,26.66
2023-04-15T02:08:02.703Z,26.35
2023-04-15T02:09:02.959Z,28.50
2023-04-15T02:10:02.866Z,28.10
2023-04-15T02:11:02.911Z,26.11
2023-04-15T02:12:02.984Z,27.76
2023-04-15T02:13:03.054Z,26.10
2023-04-15T02:14:03.120Z,27.38
2023-04-15T02:15:03.230Z,26.96
2023-04-15T02:16:03.326Z,30.91
2023-04-15T02:17:03.326Z,27.79
2023-04-15T02:18:03.530Z,29.28
2023-04-15T02:19:03.456Z,26.07
2023-04-15T02:20:03.528Z,29.78
2023-04-15T02:21:03.590Z,26.68
2023-04-15T02:22:03.687Z,27.63
2023-04-15T02:23:03.736Z,29.90
2023-04-15T02:24:03.794Z,28.68
2023-04-15T02:25:03.855Z,26.43
2023-04-15T02:26:03.927Z,28.59
2023-04-15T02:27:03.993Z,29.79
2023-04-15T02:28:04.054Z,28.86
2023-04-15T02:29:04.114Z,28.53
2023-04-15T02:30:04.178Z,27.37
2023-04-15T02:31:04.246Z,29.65
2023-04-15T02:32:04.429Z,28.15
2023-04-15T02:33:04.378Z,27.18
2023-04-15T02:34:04.456Z,28.77
2023-04-15T02:35:04.501Z,27.99
2023-04-15T02:36:04.567Z,27.85
2023-04-15T02:37:04.630Z,29.46
2023-04-15T02:38:04.696Z,29.23
2023-04-15T02:39:04.768Z,28.25
2023-04-15T02:40:04.833Z,29.58
2023-04-15T02:41:04.892Z,29.07
2023-04-15T02:42:04.969Z,30.33
2023-04-15T02:43:05.025Z,29.25
2023-04-15T02:44:05.092Z,27.98
2023-04-15T02:45:05.163Z,28.36
2023-04-15T02:46:05.311Z,30.19
2023-04-15T02:47:05.333Z,28.89
2023-04-15T02:48:05.412Z,30.14
2023-04-15T02:49:05.430Z,28.38
2023-04-15T02:50:05.527Z,28.94
2023-04-15T02:51:05.567Z,31.23
2023-04-15T02:52:05.642Z,27.49
2023-04-15T02:53:05.707Z,28.49
2023-04-15T02:54:05.777Z,26.76
2023-04-15T02:55:05.836Z,28.42
2023-04-15T02:56:04.894Z,28.02
2023-04-15T02:57:05.960Z,26.77
2023-04-15T02:58:06.025Z,26.94
2023-04-15T02:59:06.090Z,28.83
2023-04-15T03:00:06.158Z,27.99
2023-04-15T03:01:06.239Z,27.93
2023-04-15T03:02:06.317Z,27.77
2023-04-15T03:03:06.635Z,27.18
2023-04-15T03:04:06.470Z,29.11
2023-04-15T03:05:06.483Z,28.95
2023-04-15T03:06:06.569Z,29.56
2023-04-15T03:07:06.610Z,29.78
2023-04-15T03:08:06.690Z,29.97
2023-04-15T03:09:06.747Z,28.10
2023-04-15T03:10:06.816Z,27.98
2023-04-15T03:11:06.876Z,29.37
2023-04-15T03:12:06.940Z,28.08
2023-04-15T03:13:07.046Z,31.58
2023-04-15T03:14:07.141Z,30.41
2023-04-15T03:15:07.141Z,30.54
2023-04-15T03:16:07.232Z,29.57
2023-04-15T03:17:07.268Z,30.54
2023-04-15T03:18:07.333Z,29.47
2023-04-15T03:19:07.399Z,28.01
2023-04-15T03:20:07.517Z,28.77
2023-04-15T03:21:07.536Z,30.43
2023-04-15T03:22:07.622Z,30.01
2023-04-15T03:23:07.658Z,29.67
2023-04-15T03:24:07.729Z,30.36
2023-04-15T03:25:07.801Z,29.25
2023-04-15T03:26:07.879Z,28.32
2023-04-15T03:27:07.932Z,28.37
2023-04-15T03:28:08.008Z,26.43
2023-04-15T03:29:08.071Z,28.09
2023-04-15T03:30:08.165Z,28.88
2023-04-15T03:31:08.297Z,29.78
2023-04-15T03:32:08.293Z,29.81
2023-04-15T03:33:08.357Z,29.21
2023-04-15T03:34:08.435Z,28.39
2023-04-15T03:35:08.518Z,27.79
2023-04-15T03:36:08.574Z,29.09
2023-04-15T03:37:08.642Z,29.28
2023-04-15T03:38:08.740Z,30.28
2023-04-15T03:39:08.793Z,28.54
2023-04-15T03:40:08.856Z,28.20
2023-04-15T03:41:08.929Z,28.64
2023-04-15T03:42:08.990Z,30.44
2023-04-15T03:43:09.068Z,28.75
2023-04-15T03:44:09.134Z,29.77
2023-04-15T03:45:09.250Z,27.09
2023-04-15T03:46:09.310Z,28.75
2023-04-15T03:47:09.348Z,28.16
2023-04-15T03:48:17.316Z,27.15
2023-04-15T03:49:09.430Z,27.50
2023-04-15T03:50:09.438Z,28.74
2023-04-15T03:51:09.452Z,29.62
2023-04-15T03:52:09.465Z,29.24
2023-04-15T03:53:09.475Z,29.05
2023-04-15T03:54:09.516Z,32.01
2023-04-15T03:55:09.503Z,29.76
2023-04-15T03:56:09.526Z,28.89
2023-04-15T03:57:09.524Z,29.19
2023-04-15T03:58:09.544Z,30.66
2023-04-15T03:59:09.556Z,28.28
2023-04-15T04:00:09.580Z,28.90
2023-04-15T04:01:09.587Z,28.84
2023-04-15T04:02:09.757Z,29.28
2023-04-15T04:03:09.834Z,28.84
2023-04-15T04:04:09.687Z,32.38
2023-04-15T04:05:09.628Z,29.63
2023-04-15T04:06:09.634Z,30.02
2023-04-15T04:07:09.645Z,30.88
2023-04-15T04:08:09.663Z,30.28
2023-04-15T04:09:09.708Z,29.31
2023-04-15T04:10:09.716Z,29.49
2023-04-15T04:11:09.701Z,30.82
2023-04-15T04:12:09.715Z,29.68
2023-04-15T04:13:09.719Z,31.79
2023-04-15T04:14:09.739Z,28.90
2023-04-15T04:15:09.752Z,28.84
2023-04-15T04:16:09.856Z,32.58
2023-04-15T04:17:09.917Z,31.02
2023-04-15T04:18:09.943Z,28.16
2023-04-15T04:19:10.048Z,32.25
2023-04-15T04:20:10.088Z,31.74
2023-04-15T04:21:10.159Z,28.32
2023-04-15T04:22:10.229Z,30.33
2023-04-15T04:23:10.309Z,31.34
2023-04-15T04:24:10.377Z,31.34
2023-04-15T04:25:10.457Z,31.34
2023-04-15T04:26:10.571Z,30.39
2023-04-15T04:27:10.601Z,29.10
2023-04-15T04:28:10.680Z,28.58
2023-04-15T04:29:10.763Z,31.32
2023-04-15T04:30:10.830Z,31.28
2023-04-15T04:31:10.917Z,29.02
2023-04-15T04:32:11.063Z,28.41
2023-04-15T04:33:11.037Z,30.62
2023-04-15T04:34:11.103Z,29.50
2023-04-15T04:35:11.171Z,30.02
2023-04-15T04:36:11.243Z,30.23
2023-04-15T04:37:11.306Z,30.71
2023-04-15T04:38:11.380Z,30.03
2023-04-15T04:39:11.450Z,29.85
2023-04-15T04:40:11.510Z,28.73
2023-04-15T04:41:11.593Z,28.63
2023-04-15T04:42:11.674Z,26.97
2023-04-15T04:43:11.722Z,30.23
2023-04-15T04:44:11.800Z,30.86
2023-04-15T04:45:11.861Z,29.08
2023-04-15T04:46:11.992Z,31.02
2023-04-15T04:47:12.014Z,30.33
2023-04-15T04:48:12.081Z,27.74
2023-04-15T04:49:12.140Z,30.45
2023-04-15T04:50:12.226Z,29.26
2023-04-15T04:51:12.285Z,29.09
2023-04-15T04:52:12.362Z,29.31
2023-04-15T04:53:12.436Z,29.51
2023-04-15T04:54:12.513Z,27.93
2023-04-15T04:55:12.581Z,30.02
2023-04-15T04:56:12.657Z,29.21
2023-04-15T04:57:12.721Z,30.51
2023-04-15T04:58:12.842Z,27.96
2023-04-15T04:59:12.872Z,27.85
2023-04-15T05:00:13.007Z,29.99
2023-04-15T05:01:13.126Z,29.93
2023-04-15T05:02:13.208Z,30.48
2023-04-15T05:03:13.298Z,28.24
2023-04-15T05:04:13.486Z,31.05
2023-04-15T05:05:13.336Z,27.37
2023-04-15T05:06:13.429Z,29.41
2023-04-15T05:07:13.479Z,31.19
2023-04-15T05:08:13.544Z,26.93
2023-04-15T05:09:13.609Z,27.25
2023-04-15T05:10:13.671Z,28.28
2023-04-15T05:11:13.786Z,28.82
2023-04-15T05:12:13.818Z,26.08
2023-04-15T05:13:13.898Z,28.00
2023-04-15T05:14:13.992Z,28.71
2023-04-15T05:15:14.065Z,27.06
2023-04-15T05:16:14.171Z,28.74
2023-04-15T05:17:14.199Z,27.43
2023-04-15T05:18:14.280Z,25.00
2023-04-15T05:19:14.351Z,28.55
2023-04-15T05:20:14.455Z,29.66
2023-04-15T05:21:14.513Z,26.77
2023-04-15T05:22:14.584Z,29.06
2023-04-15T05:23:14.660Z,28.57
2023-04-15T05:24:14.748Z,28.37
2023-04-15T05:25:14.836Z,30.96
2023-04-15T05:26:14.896Z,27.53
2023-04-15T05:27:14.973Z,30.60
2023-04-15T05:28:15.056Z,30.44
2023-04-15T05:29:15.135Z,29.95
2023-04-15T05:30:15.289Z,29.02
2023-04-15T05:31:15.322Z,30.41
2023-04-15T05:32:15.370Z,27.56
2023-04-15T05:33:15.443Z,30.14
2023-04-15T05:34:15.519Z,30.23
2023-04-15T05:35:15.596Z,27.28
2023-04-15T05:36:15.675Z,30.62
2023-04-15T05:37:15.753Z,29.55
2023-04-15T05:38:15.844Z,32.13
2023-04-15T05:39:15.903Z,33.38
2023-04-15T05:40:15.978Z,28.38
2023-04-15T05:41:17.800Z,29.20
2023-04-15T05:42:16.074Z,29.45
2023-04-15T05:43:16.072Z,29.63
2023-04-15T05:44:16.088Z,30.00
2023-04-15T05:45:16.104Z,29.24
2023-04-15T05:46:16.172Z,30.71
2023-04-15T05:47:16.104Z,32.78
2023-04-15T05:48:16.108Z,29.93
2023-04-15T05:49:16.115Z,27.79
2023-04-15T05:50:16.119Z,30.43
2023-04-15T05:51:16.152Z,30.03
2023-04-15T05:52:16.140Z,31.47
2023-04-15T05:53:16.150Z,28.20
2023-04-15T05:54:17.704Z,29.53
2023-04-15T05:55:16.176Z,18.59
2023-04-15T05:56:16.171Z,26.97
2023-04-15T05:57:16.192Z,36.73
2023-04-15T05:58:16.221Z,60.75
2023-04-15T05:59:16.251Z,81.42
2023-04-15T06:00:16.417Z,94.43
2023-04-15T06:01:16.325Z,94.58
2023-04-15T06:02:16.528Z,106.24
2023-04-15T06:03:16.475Z,93.78
2023-04-15T06:04:16.466Z,83.05
2023-04-15T06:05:16.443Z,72.32
2023-04-15T06:06:16.463Z,69.13
2023-04-15T06:07:16.487Z,71.84
2023-04-15T06:08:16.513Z,74.89
2023-04-15T06:09:16.534Z,77.86
2023-04-15T06:10:16.557Z,97.58
2023-04-15T06:11:16.565Z,109.85
2023-04-15T06:12:16.581Z,113.43
2023-04-15T06:13:16.600Z,122.76
2023-04-15T06:14:16.619Z,116.54
2023-04-15T06:15:16.633Z,119.52
2023-04-15T06:16:16.683Z,127.34
2023-04-15T06:17:16.665Z,126.25
2023-04-15T06:18:16.706Z,130.32
2023-04-15T06:19:16.700Z,132.58
2023-04-15T06:20:16.699Z,136.83
2023-04-15T06:21:16.712Z,137.91
2023-04-15T06:22:16.722Z,142.95
2023-04-15T06:23:16.737Z,145.07
2023-04-15T06:24:16.750Z,144.78
2023-04-15T06:25:16.755Z,149.08
2023-04-15T06:26:16.759Z,153.62
2023-04-15T06:27:16.815Z,158.07
2023-04-15T06:28:16.784Z,159.20
2023-04-15T06:29:16.807Z,160.75
2023-04-15T06:30:16.807Z,163.69
2023-04-15T06:31:16.832Z,167.48
2023-04-15T06:32:16.828Z,168.59
2023-04-15T06:33:16.839Z,174.24
2023-04-15T06:34:16.941Z,173.21
2023-04-15T06:35:16.987Z,179.37
2023-04-15T06:36:17.047Z,184.50
2023-04-15T06:37:17.099Z,190.94
2023-04-15T06:38:17.150Z,193.96
2023-04-15T06:39:17.201Z,195.72
2023-04-15T06:40:17.267Z,196.45
2023-04-15T06:41:17.297Z,202.16
2023-04-15T06:42:17.336Z,203.05
2023-04-15T06:43:17.374Z,207.59
2023-04-15T06:44:17.427Z,209.32
2023-04-15T06:45:17.466Z,213.26
2023-04-15T06:46:17.549Z,213.99
2023-04-15T06:47:17.586Z,216.52
2023-04-15T06:48:17.564Z,218.75
2023-04-15T06:49:17.589Z,224.84
2023-04-15T06:50:17.667Z,223.59
2023-04-15T06:51:17.658Z,225.64
2023-04-15T06:52:17.691Z,228.30
2023-04-15T06:53:17.722Z,231.03
2023-04-15T06:54:17.747Z,235.06
2023-04-15T06:55:17.766Z,236.90
2023-04-15T06:56:17.793Z,242.95
2023-04-15T06:57:17.816Z,241.19
2023-04-15T06:58:17.843Z,245.27
2023-04-15T06:59:17.861Z,250.00
2023-04-15T07:00:17.887Z,250.00
2023-04-15T07:01:17.935Z,250.00
2023-04-15T07:02:17.984Z,249.74
2023-04-15T07:03:17.992Z,249.34
2023-04-15T07:04:18.017Z,249.75
2023-04-15T07:05:17.988Z,250.00
2023-04-15T07:06:18.031Z,246.82
2023-04-15T07:07:18.037Z,233.81
2023-04-15T07:08:18.049Z,194.66
2023-04-15T07:09:18.090Z,171.37
2023-04-15T07:10:18.117Z,150.09
2023-04-15T07:11:18.157Z,134.36
2023-04-15T07:12:18.258Z,120.13
2023-04-15T07:13:18.273Z,105.52
2023-04-15T07:14:18.364Z,95.77
2023-04-15T07:15:18.410Z,84.28
2023-04-15T07:16:18.549Z,66.49
2023-04-15T07:17:18.602Z,40.98
2023-04-15T07:18:18.579Z,5.90
2023-04-15T07:19:18.589Z,0.00
2023-04-15T07:20:18.639Z,0.00
2023-04-15T07:21:18.708Z,0.00
2023-04-15T07:22:18.803Z,0.00
2023-04-15T07:23:18.827Z,4.16
2023-04-15T07:24:18.867Z,15.10
2023-04-15T07:25:19.007Z,24.49
2023-04-15T07:26:19.054Z,25.93
2023-04-15T07:27:19.149Z,28.21
2023-04-15T07:28:19.247Z,31.48
2023-04-15T07:29:19.340Z,37.47
2023-04-15T07:30:19.428Z,46.74
2023-04-15T07:31:19.541Z,44.98
2023-04-15T07:32:19.597Z,42.04
2023-04-15T07:33:19.612Z,40.48
2023-04-15T07:34:19.664Z,40.93
2023-04-15T07:35:19.690Z,37.27
2023-04-15T07:36:19.717Z,35.61
2023-04-15T07:37:19.751Z,41.57
2023-04-15T07:38:19.883Z,54.23
2023-04-15T07:39:19.912Z,57.75
2023-04-15T07:40:19.994Z,57.07
2023-04-15T07:41:20.086Z,68.91
2023-04-15T07:42:20.162Z,78.05
2023-04-15T07:43:20.249Z,80.97
2023-04-15T07:44:20.309Z,84.60
2023-04-15T07:45:20.375Z,90.96
2023-04-15T07:46:20.480Z,93.81
2023-04-15T07:47:20.505Z,99.61
2023-04-15T07:48:20.481Z,102.94
2023-04-15T07:49:20.497Z,106.04
2023-04-15T07:50:20.541Z,109.60
2023-04-15T07:51:20.574Z,112.29
2023-04-15T07:52:20.632Z,115.23
2023-04-15T07:53:20.696Z,119.60
2023-04-15T07:54:20.807Z,120.33
2023-04-15T07:55:20.870Z,122.53
2023-04-15T07:56:20.957Z,124.03
2023-04-15T07:57:21.030Z,127.09
2023-04-15T07:58:21.108Z,130.27
2023-04-15T07:59:21.176Z,133.09
2023-04-15T08:00:21.248Z,135.93
2023-04-15T08:01:21.310Z,137.62
2023-04-15T08:02:21.490Z,138.57
2023-04-15T08:03:21.492Z,140.69
2023-04-15T08:04:21.646Z,143.40
2023-04-15T08:05:21.589Z,145.83
2023-04-15T08:06:21.618Z,149.28
2023-04-15T08:07:21.680Z,151.50
2023-04-15T08:08:21.738Z,153.60
2023-04-15T08:09:21.772Z,156.11
2023-04-15T08:10:21.892Z,158.84
2023-04-15T08:11:21.878Z,162.89
2023-04-15T08:12:21.916Z,163.91
2023-04-15T08:13:21.971Z,166.81
2023-04-15T08:14:22.002Z,170.12
2023-04-15T08:15:22.079Z,171.67
2023-04-15T08:16:22.101Z,173.32
2023-04-15T08:17:22.175Z,175.84
2023-04-15T08:18:22.164Z,175.76
2023-04-15T08:19:22.208Z,179.06
2023-04-15T08:20:22.258Z,183.19
2023-04-15T08:21:22.292Z,185.60
2023-04-15T08:22:22.463Z,185.89
2023-04-15T08:23:22.374Z,188.36
2023-04-15T08:24:22.396Z,191.64
2023-04-15T08:25:22.450Z,194.00
2023-04-15T08:26:22.481Z,197.54
2023-04-15T08:27:22.536Z,132.87
2023-04-15T08:28:22.603Z,119.63
2023-04-15T08:29:22.675Z,124.74
2023-04-15T08:30:22.709Z,129.72
2023-04-15T08:31:22.810Z,141.72
2023-04-15T08:32:22.833Z,148.69
2023-04-15T08:33:22.859Z,156.10
2023-04-15T08:34:22.909Z,164.04
2023-04-15T08:35:23.001Z,167.69
2023-04-15T08:36:23.051Z,164.44
2023-04-15T08:37:23.122Z,167.32
2023-04-15T08:38:23.235Z,170.78
2023-04-15T08:39:23.280Z,175.22
2023-04-15T08:40:23.328Z,176.28
2023-04-15T08:41:23.449Z,174.14
2023-04-15T08:42:23.480Z,176.10
2023-04-15T08:43:23.530Z,177.44
2023-04-15T08:44:23.570Z,179.69
2023-04-15T08:45:23.658Z,182.95
2023-04-15T08:46:23.725Z,184.40
2023-04-15T08:47:23.768Z,184.38
2023-04-15T08:48:23.783Z,187.04
2023-04-15T08:49:23.826Z,187.39
2023-04-15T08:50:23.875Z,188.46
2023-04-15T08:51:25.062Z,190.66
2023-04-15T08:52:23.974Z,190.49
2023-04-15T08:53:24.021Z,190.63
2023-04-15T08:54:24.066Z,191.28
2023-04-15T08:55:24.119Z,192.02
2023-04-15T08:56:24.177Z,192.27
2023-04-15T08:57:24.196Z,192.88
2023-04-15T08:58:24.258Z,193.47
2023-04-15T08:59:24.268Z,195.20
2023-04-15T09:00:24.297Z,196.23
2023-04-15T09:01:24.377Z,197.39
2023-04-15T09:02:24.469Z,198.37
2023-04-15T09:03:24.454Z,199.24
2023-04-15T09:04:24.428Z,200.55
2023-04-15T09:05:24.445Z,202.92
2023-04-15T09:06:24.473Z,203.63
2023-04-15T09:07:24.500Z,204.09
2023-04-15T09:08:24.609Z,205.20
2023-04-15T09:09:24.564Z,206.55
2023-04-15T09:10:24.579Z,208.18
2023-04-15T09:11:24.594Z,210.73
2023-04-15T09:12:24.611Z,212.70
2023-04-15T09:13:24.646Z,213.00
2023-04-15T09:14:24.722Z,214.25
2023-04-15T09:15:24.686Z,216.75
2023-04-15T09:16:24.816Z,216.90
2023-04-15T09:17:24.776Z,219.16
2023-04-15T09:18:24.744Z,220.59
2023-04-15T09:19:24.773Z,220.86
2023-04-15T09:20:24.792Z,223.65
2023-04-15T09:21:24.797Z,224.71
2023-04-15T09:22:24.832Z,225.83
2023-04-15T09:23:24.840Z,226.03
2023-04-15T09:24:24.855Z,229.84
2023-04-15T09:25:24.933Z,228.81
2023-04-15T09:26:24.892Z,231.11
2023-04-15T09:27:24.908Z,231.39
2023-04-15T09:28:24.934Z,234.57
2023-04-15T09:29:24.950Z,235.20
2023-04-15T09:30:24.995Z,236.37
2023-04-15T09:31:25.063Z,237.56
2023-04-15T09:32:25.040Z,238.42
2023-04-15T09:33:25.005Z,240.55
2023-04-15T09:34:25.072Z,241.60
2023-04-15T09:35:25.033Z,243.23
2023-04-15T09:36:25.087Z,249.60
2023-04-15T09:37:32.417Z,250.00
2023-04-15T09:38:25.061Z,250.16
2023-04-15T09:39:25.060Z,250.35
2023-04-15T09:40:25.067Z,224.40
2023-04-15T09:41:25.068Z,160.29
2023-04-15T09:42:25.072Z,134.16
2023-04-15T09:43:25.080Z,110.62
2023-04-15T09:44:25.113Z,99.45
2023-04-15T09:45:28.811Z,89.82
2023-04-15T09:46:25.139Z,81.61
2023-04-15T09:47:25.146Z,71.71
2023-04-15T09:48:25.124Z,79.11
2023-04-15T09:49:25.217Z,77.97
2023-04-15T09:50:25.247Z,56.86
2023-04-15T09:51:25.311Z,46.11
2023-04-15T09:52:25.373Z,35.96
2023-04-15T09:53:25.419Z,34.74
2023-04-15T09:54:25.465Z,27.33
2023-04-15T09:55:25.485Z,22.89
2023-04-15T09:56:25.511Z,40.24
2023-04-15T09:57:25.534Z,60.09
2023-04-15T09:58:25.547Z,89.82
2023-04-15T09:59:25.634Z,112.09
2023-04-15T10:00:25.715Z,126.94
2023-04-15T10:01:25.820Z,130.40
2023-04-15T10:02:25.981Z,133.25
2023-04-15T10:03:26.139Z,130.85
2023-04-15T10:04:26.071Z,133.77
2023-04-15T10:05:26.055Z,135.93
2023-04-15T10:06:26.106Z,139.41
2023-04-15T10:07:26.683Z,141.87
2023-04-15T10:08:26.234Z,141.47
2023-04-15T10:09:26.279Z,145.57
2023-04-15T10:10:26.333Z,146.58
2023-04-15T10:11:26.391Z,147.45
2023-04-15T10:12:26.453Z,151.34
2023-04-15T10:13:26.479Z,154.19
2023-04-15T10:14:26.525Z,154.67
2023-04-15T10:15:26.566Z,157.59
2023-04-15T10:16:26.631Z,160.60
2023-04-15T10:17:26.689Z,163.18
2023-04-15T10:18:26.722Z,165.71
2023-04-15T10:19:26.722Z,162.55
2023-04-15T10:20:26.761Z,165.21
2023-04-15T10:21:26.788Z,165.86
2023-04-15T10:22:26.823Z,168.52
2023-04-15T10:23:26.857Z,171.03
2023-04-15T10:24:26.879Z,173.65
2023-04-15T10:25:26.919Z,174.89
2023-04-15T10:26:26.935Z,177.93
2023-04-15T10:27:26.959Z,178.36
2023-04-15T10:28:26.989Z,180.38
2023-04-15T10:29:27.010Z,182.37
2023-04-15T10:30:27.031Z,184.89
2023-04-15T10:31:27.072Z,185.48
2023-04-15T10:32:27.075Z,187.72
2023-04-15T10:33:27.064Z,189.29
2023-04-15T10:34:27.104Z,190.99
2023-04-15T10:35:27.119Z,192.27
2023-04-15T10:36:27.101Z,194.44
2023-04-15T10:37:27.117Z,203.31
2023-04-15T10:38:27.130Z,211.99
2023-04-15T10:39:27.145Z,217.10
2023-04-15T10:40:27.157Z,214.93
2023-04-15T10:41:27.153Z,213.25
2023-04-15T10:42:27.167Z,212.69
2023-04-15T10:43:27.164Z,211.96
2023-04-15T10:44:27.194Z,212.71
2023-04-15T10:45:27.263Z,212.74
2023-04-15T10:46:27.261Z,214.68
2023-04-15T10:47:27.237Z,215.98
2023-04-15T10:48:27.253Z,216.95
2023-04-15T10:49:27.267Z,219.53
2023-04-15T10:50:27.310Z,221.51
2023-04-15T10:51:27.291Z,223.09
2023-04-15T10:52:27.300Z,222.74
2023-04-15T10:53:27.313Z,224.43
2023-04-15T10:54:27.342Z,225.25
2023-04-15T10:55:27.345Z,224.45
2023-04-15T10:56:27.358Z,224.16
2023-04-15T10:57:27.383Z,223.36
2023-04-15T10:58:27.413Z,222.85
2023-04-15T10:59:27.487Z,222.14
2023-04-15T11:00:27.448Z,220.25
2023-04-15T11:01:27.469Z,219.55
2023-04-15T11:02:27.679Z,215.88
2023-04-15T11:03:27.618Z,213.07
2023-04-15T11:04:27.692Z,210.94
2023-04-15T11:05:27.554Z,207.71
2023-04-15T11:06:27.565Z,207.08
2023-04-15T11:07:27.551Z,205.40
2023-04-15T11:08:27.571Z,205.39
2023-04-15T11:09:27.602Z,206.39
2023-04-15T11:10:27.617Z,207.18
2023-04-15T11:11:27.627Z,204.82
2023-04-15T11:12:27.662Z,205.99
2023-04-15T11:13:27.667Z,205.69
2023-04-15T11:14:27.681Z,204.89
2023-04-15T11:15:27.703Z,204.33
2023-04-15T11:16:27.817Z,205.42
2023-04-15T11:17:27.782Z,204.88
2023-04-15T11:18:27.783Z,204.65
2023-04-15T11:19:27.822Z,204.36
2023-04-15T11:20:27.833Z,204.25
2023-04-15T11:21:27.860Z,203.49
2023-04-15T11:22:27.914Z,203.10
2023-04-15T11:23:27.901Z,202.60
2023-04-15T11:24:27.930Z,202.85
2023-04-15T11:25:27.951Z,202.45
2023-04-15T11:26:27.977Z,202.44
2023-04-15T11:27:28.008Z,203.04
2023-04-15T11:28:28.050Z,203.67
2023-04-15T11:29:28.066Z,202.87
2023-04-15T11:30:28.096Z,202.81
2023-04-15T11:31:28.136Z,202.60
2023-04-15T11:32:28.162Z,202.64
2023-04-15T11:33:28.192Z,203.86
2023-04-15T11:34:28.217Z,202.71
2023-04-15T11:35:28.250Z,202.79
2023-04-15T11:36:28.275Z,203.31
2023-04-15T11:37:28.306Z,201.71
2023-04-15T11:38:28.354Z,202.00
2023-04-15T11:39:28.366Z,202.28
2023-04-15T11:40:28.404Z,203.07
2023-04-15T11:41:28.428Z,203.09
2023-04-15T11:42:39.268Z,202.44
2023-04-15T11:43:28.465Z,202.65
2023-04-15T11:44:28.477Z,203.18
2023-04-15T11:45:28.488Z,203.07
2023-04-15T11:46:28.489Z,203.55
2023-04-15T11:47:28.539Z,203.44
2023-04-15T11:48:28.499Z,203.90
2023-04-15T11:49:28.513Z,201.71
2023-04-15T11:50:28.526Z,202.70
2023-04-15T11:51:28.520Z,203.87
2023-04-15T11:52:28.518Z,202.64
2023-04-15T11:53:28.524Z,203.85
2023-04-15T11:54:28.551Z,202.00
2023-04-15T11:55:28.542Z,201.96
2023-04-15T11:56:28.545Z,203.75
2023-04-15T11:57:28.561Z,202.74
2023-04-15T11:58:28.561Z,203.38
2023-04-15T11:59:38.943Z,203.39
2023-04-15T12:00:28.576Z,203.63
2023-04-15T12:01:28.582Z,204.28
2023-04-15T12:02:28.707Z,204.08
2023-04-15T12:03:28.771Z,204.14
2023-04-15T12:04:28.819Z,204.38
2023-04-15T12:05:28.614Z,204.56
2023-04-15T12:06:28.613Z,203.38
2023-04-15T12:07:28.630Z,202.89
2023-04-15T12:08:28.636Z,203.41
2023-04-15T12:09:29.338Z,202.80
2023-04-15T12:10:28.922Z,204.90
2023-04-15T12:11:28.927Z,204.08
2023-04-15T12:12:28.965Z,204.36
2023-04-15T12:13:29.004Z,203.31
2023-04-15T12:14:29.039Z,204.74
2023-04-15T12:15:29.162Z,202.62
2023-04-15T12:16:29.102Z,201.01
2023-04-15T12:17:29.171Z,201.81
2023-04-15T12:18:29.174Z,202.48
2023-04-15T12:19:29.213Z,202.12
2023-04-15T12:20:29.245Z,202.84
2023-04-15T12:21:29.289Z,201.64
2023-04-15T12:22:29.316Z,202.30
2023-04-15T12:23:29.348Z,202.44
2023-04-15T12:24:29.388Z,201.45
2023-04-15T12:25:29.426Z,201.00
2023-04-15T12:26:29.507Z,201.13
2023-04-15T12:27:29.944Z,201.26
2023-04-15T12:28:29.512Z,202.13
2023-04-15T12:29:29.582Z,201.16
2023-04-15T12:30:29.594Z,201.85
2023-04-15T12:31:29.677Z,201.92
2023-04-15T12:32:29.701Z,200.96
2023-04-15T12:33:29.703Z,200.87
2023-04-15T12:34:29.740Z,202.02
2023-04-15T12:35:29.783Z,200.60
2023-04-15T12:36:29.815Z,200.08
2023-04-15T12:37:29.855Z,200.27
2023-04-15T12:38:29.888Z,200.72
2023-04-15T12:39:30.855Z,200.79
2023-04-15T12:40:29.964Z,202.02
2023-04-15T12:41:30.001Z,200.56
2023-04-15T12:42:30.069Z,201.91